Time;durP1;ratioP1;P1;durP2;ratioP2;P2;SDS_P1;SDS_P2;PMS_P1;PMS_P2;Temp;Humidity;BMP_temperature;BMP_pressure;BME280_temperature;BME280_humidity;BME280_pressure;Samples;Min_cycle;Max_cycle;Signal;HPM_P1;HPM_P2
2022/07/30 00:02:24;;;;;;;1999.90;999.90;;;19.50;99.90;;;;;;5012810;28;20026;-76
2022/07/30 00:04:50;;;;;;;1999.90;999.90;;;19.50;99.90;;;;;;5013144;28;20034;-76
2022/07/30 00:07:15;;;;;;;1999.90;999.90;;;19.40;99.90;;;;;;5013224;28;20026;-74
2022/07/30 00:09:41;;;;;;;1999.90;999.90;;;19.50;99.90;;;;;;5013288;28;20038;-74
2022/07/30 00:12:07;;;;;;;1999.90;999.90;;;19.40;99.90;;;;;;5012654;28;20401;-76
2022/07/30 00:14:34;;;;;;;1999.90;999.90;;;19.40;99.90;;;;;;5012826;28;20026;-76
2022/07/30 00:17:01;;;;;;;1999.90;999.90;;;19.40;99.90;;;;;;5012829;28;20097;-76
2022/07/30 00:19:28;;;;;;;1999.90;999.90;;;19.40;99.90;;;;;;5012868;28;20156;-75
2022/07/30 00:21:53;;;;;;;1999.90;999.90;;;19.40;99.90;;;;;;5012698;28;20022;-75
2022/07/30 00:24:20;;;;;;;1999.90;999.90;;;19.40;99.90;;;;;;5012939;28;20600;-76
2022/07/30 00:26:46;;;;;;;1999.90;999.90;;;19.40;99.90;;;;;;5012127;28;20037;-76
2022/07/30 00:29:12;;;;;;;1999.90;999.90;;;19.40;99.90;;;;;;5012606;28;20036;-74
2022/07/30 00:31:38;;;;;;;1999.90;999.90;;;19.40;99.90;;;;;;5012737;28;20028;-74
2022/07/30 00:34:04;;;;;;;1999.90;999.90;;;19.40;99.90;;;;;;5013787;28;20036;-74
2022/07/30 00:36:29;;;;;;;1999.90;999.90;;;19.30;99.90;;;;;;5016602;28;20101;-74
2022/07/30 00:38:55;;;;;;;1999.90;999.90;;;19.30;99.90;;;;;;5016772;28;20116;-76
2022/07/30 00:41:21;;;;;;;1999.90;999.90;;;19.30;99.90;;;;;;5016151;28;20057;-74
2022/07/30 00:43:47;;;;;;;1999.90;999.90;;;19.30;99.90;;;;;;5016446;28;20481;-77
2022/07/30 00:46:13;;;;;;;1999.90;999.90;;;19.30;99.90;;;;;;5016542;28;20036;-75
2022/07/30 00:48:40;;;;;;;1999.90;999.90;;;19.30;99.90;;;;;;5016328;28;20072;-75
2022/07/30 00:51:05;;;;;;;1999.90;999.90;;;19.30;99.90;;;;;;5016506;28;20104;-76
2022/07/30 00:53:32;;;;;;;1999.90;999.90;;;19.30;99.90;;;;;;5016361;28;20034;-77
2022/07/30 00:55:58;;;;;;;1999.90;999.90;;;19.30;99.90;;;;;;5015970;28;20033;-76
2022/07/30 00:58:23;;;;;;;1999.90;999.90;;;19.30;99.90;;;;;;5008602;28;20021;-77
2022/07/30 01:00:49;;;;;;;1999.90;999.90;;;19.30;99.90;;;;;;4995979;28;20477;-75
2022/07/30 01:03:15;;;;;;;1999.90;999.90;;;19.30;99.90;;;;;;5009166;28;20113;-74
2022/07/30 01:05:40;;;;;;;1999.90;999.90;;;19.30;99.90;;;;;;5016344;28;20104;-75
2022/07/30 01:08:06;;;;;;;1999.90;999.90;;;19.30;99.90;;;;;;5015954;28;20041;-74
2022/07/30 01:10:32;;;;;;;1999.90;999.90;;;19.30;99.90;;;;;;5014357;28;20037;-76
2022/07/30 01:12:58;;;;;;;1999.90;999.90;;;19.30;99.90;;;;;;5015539;28;20038;-75
2022/07/30 01:15:25;;;;;;;1999.90;999.90;;;19.30;99.90;;;;;;5015222;28;20056;-74
2022/07/30 01:17:54;;;;;;;1999.90;999.90;;;19.30;99.90;;;;;;5015642;28;20485;-75
2022/07/30 01:20:39;;;;;;;1999.90;999.90;;;19.30;99.90;;;;;;5015629;28;20022;-77
2022/07/30 01:23:26;;;;;;;1999.90;999.90;;;19.30;99.90;;;;;;5015559;28;20041;-77
2022/07/30 01:25:57;;;;;;;1999.90;999.90;;;19.30;99.90;;;;;;5013469;28;20083;-74
2022/07/30 01:28:32;;;;;;;1999.90;999.90;;;19.30;99.90;;;;;;5015386;28;20512;-76
2022/07/30 01:30:59;;;;;;;1999.90;999.90;;;19.30;99.90;;;;;;5015693;28;20412;-76
2022/07/30 01:33:26;;;;;;;1999.90;999.90;;;19.30;99.90;;;;;;5014582;28;20564;-77
2022/07/30 01:35:54;;;;;;;1999.90;999.90;;;19.30;99.90;;;;;;5015724;28;20044;-74
2022/07/30 01:38:23;;;;;;;1999.90;999.90;;;19.30;99.90;;;;;;5015095;28;20489;-74
2022/07/30 01:40:54;;;;;;;1999.90;999.90;;;19.30;99.90;;;;;;5015073;28;20026;-75
2022/07/30 01:43:22;;;;;;;1999.90;999.90;;;19.30;99.90;;;;;;5015559;28;20030;-77
2022/07/30 01:45:50;;;;;;;1999.90;999.90;;;19.20;99.90;;;;;;5013802;28;20053;-74
2022/07/30 01:48:19;;;;;;;1999.90;999.90;;;19.30;99.90;;;;;;5015103;28;20022;-76
2022/07/30 01:50:48;;;;;;;1999.90;999.90;;;19.20;99.90;;;;;;5013620;28;20394;-74
2022/07/30 01:53:17;;;;;;;1999.90;999.90;;;19.20;99.90;;;;;;5015159;28;20072;-74
2022/07/30 01:55:45;;;;;;;1999.90;999.90;;;19.20;99.90;;;;;;5014706;28;20030;-74
2022/07/30 01:58:12;;;;;;;1999.90;999.90;;;19.20;99.90;;;;;;5015206;28;20504;-76
2022/07/30 02:00:41;;;;;;;1999.90;999.90;;;19.30;99.90;;;;;;5014906;28;20022;-77
2022/07/30 02:03:08;;;;;;;1999.90;999.90;;;19.20;99.90;;;;;;5014799;28;20026;-74
2022/07/30 02:05:35;;;;;;;1999.90;999.90;;;19.30;99.90;;;;;;5015061;28;20034;-74
2022/07/30 02:08:20;;;;;;;1999.90;999.90;;;19.20;99.90;;;;;;5014939;28;20109;-74
2022/07/30 02:11:01;;;;;;;1999.90;999.90;;;19.30;99.90;;;;;;5014828;28;20398;-76
2022/07/30 02:13:28;;;;;;;1999.90;999.90;;;19.20;99.90;;;;;;5014560;28;20026;-76
2022/07/30 02:16:05;;;;;;;1999.90;999.90;;;19.30;99.90;;;;;;5014629;28;20508;-74
2022/07/30 02:18:55;;;;;;;1999.90;999.90;;;19.30;99.90;;;;;;5014569;28;20121;-74
2022/07/30 02:21:22;;;;;;;1999.90;999.90;;;19.30;99.90;;;;;;5014589;28;20076;-74
2022/07/30 02:23:50;;;;;;;1999.90;999.90;;;19.30;99.90;;;;;;5014365;28;20014;-76
2022/07/30 02:26:23;;;;;;;1999.90;999.90;;;19.20;99.90;;;;;;5014256;28;20072;-76
2022/07/30 02:28:53;;;;;;;1999.90;999.90;;;19.30;99.90;;;;;;5014414;28;20021;-76
2022/07/30 02:31:22;;;;;;;1999.90;999.90;;;19.30;99.90;;;;;;5014458;28;20496;-74
2022/07/30 02:33:51;;;;;;;1999.90;999.90;;;19.30;99.90;;;;;;5014107;28;20032;-76
2022/07/30 02:36:18;;;;;;;1999.90;999.90;;;19.30;99.90;;;;;;5010212;28;20026;-76
2022/07/30 02:38:45;;;;;;;1999.90;999.90;;;19.30;99.90;;;;;;5006373;28;20033;-76
2022/07/30 02:41:11;;;;;;;1999.90;999.90;;;19.20;99.90;;;;;;5014018;28;20026;-76
2022/07/30 02:43:39;;;;;;;1999.90;999.90;;;19.20;99.90;;;;;;5013285;28;20030;-74
2022/07/30 02:46:08;;;;;;;1999.90;999.90;;;19.30;99.90;;;;;;5013494;28;20021;-74
2022/07/30 02:48:37;;;;;;;1999.90;999.90;;;19.20;99.90;;;;;;5014126;28;20038;-76
2022/07/30 02:51:04;;;;;;;1999.90;999.90;;;19.20;99.90;;;;;;5013924;28;20056;-76
2022/07/30 02:53:31;;;;;;;1999.90;999.90;;;19.20;99.90;;;;;;5014162;28;20025;-76
2022/07/30 02:55:59;;;;;;;1999.90;999.90;;;19.20;99.90;;;;;;5013698;28;20440;-74
2022/07/30 02:58:27;;;;;;;1999.90;999.90;;;19.20;99.90;;;;;;5013159;28;20544;-74
2022/07/30 03:00:54;;;;;;;1999.90;999.90;;;19.20;99.90;;;;;;5013842;28;20041;-76
2022/07/30 03:03:27;;;;;;;1999.90;999.90;;;19.20;99.90;;;;;;5013799;28;20021;-76
2022/07/30 03:05:54;;;;;;;1999.90;999.90;;;19.20;99.90;;;;;;5013870;28;20054;-74
2022/07/30 03:08:20;;;;;;;1999.90;999.90;;;19.20;99.90;;;;;;5013834;28;20026;-74
2022/07/30 03:10:48;;;;;;;1999.90;999.90;;;19.20;99.90;;;;;;5013763;28;20411;-74
2022/07/30 03:13:15;;;;;;;1999.90;999.90;;;19.10;99.90;;;;;;5013436;28;20037;-74
2022/07/30 03:15:44;;;;;;;1999.90;999.90;;;19.10;99.90;;;;;;5013678;28;20021;-74
2022/07/30 03:18:13;;;;;;;1999.90;999.90;;;19.10;99.90;;;;;;5013531;28;20018;-76
2022/07/30 03:20:39;;;;;;;1999.90;999.90;;;19.10;99.90;;;;;;5013610;28;20029;-74
2022/07/30 03:23:06;;;;;;;1999.90;999.90;;;19.10;99.90;;;;;;5013546;28;20489;-75
2022/07/30 03:25:34;;;;;;;1999.90;999.90;;;19.10;99.90;;;;;;5013277;28;20489;-74
2022/07/30 03:28:02;;;;;;;1999.90;999.90;;;19.00;99.90;;;;;;5012134;28;20038;-76
2022/07/30 03:30:29;;;;;;;1999.90;999.90;;;19.00;99.90;;;;;;5013482;28;20501;-74
2022/07/30 03:32:56;;;;;;;1999.90;999.90;;;19.00;99.90;;;;;;5013290;28;20030;-76
2022/07/30 03:35:23;;;;;;;1999.90;999.90;;;19.00;99.90;;;;;;5013134;28;20425;-74
2022/07/30 03:37:50;;;;;;;1999.90;999.90;;;18.90;99.90;;;;;;5000726;28;20050;-75
2022/07/30 03:40:17;;;;;;;1999.90;999.90;;;18.90;99.90;;;;;;5013352;28;20022;-74
2022/07/30 03:42:44;;;;;;;1999.90;999.90;;;18.90;99.90;;;;;;5013390;28;20030;-74
2022/07/30 03:45:12;;;;;;;1999.90;999.90;;;18.90;99.90;;;;;;5013299;28;20022;-76
2022/07/30 03:47:40;;;;;;;1999.90;999.90;;;18.90;99.90;;;;;;5012567;28;20527;-75
2022/07/30 03:50:07;;;;;;;1999.90;999.90;;;18.80;99.90;;;;;;5012802;28;20037;-76
2022/07/30 03:52:39;;;;;;;1999.90;999.90;;;18.90;99.90;;;;;;5013419;28;20054;-74
2022/07/30 03:55:09;;;;;;;;;;;18.90;99.90;;;;;;5013764;28;20108;-74
2022/07/30 03:57:35;;;;;;;1999.90;999.90;;;18.80;99.90;;;;;;5012533;28;19937;-76
2022/07/30 04:00:02;;;;;;;1999.90;999.90;;;18.90;99.90;;;;;;5013164;28;20065;-74
2022/07/30 04:02:27;;;;;;;1999.90;999.90;;;18.90;99.90;;;;;;5013036;28;20049;-74
2022/07/30 04:04:53;;;;;;;1999.90;999.90;;;18.90;99.90;;;;;;5013023;28;20061;-76
2022/07/30 04:07:18;;;;;;;1999.90;999.90;;;18.90;99.90;;;;;;5013435;28;20025;-76
2022/07/30 04:09:44;;;;;;;1999.90;999.90;;;18.90;99.90;;;;;;5015048;28;20030;-74
2022/07/30 04:12:12;;;;;;;1999.90;999.90;;;18.80;99.90;;;;;;5016619;28;20072;-74
2022/07/30 04:14:40;;;;;;;1999.90;999.90;;;18.90;99.90;;;;;;5016242;28;20026;-76
2022/07/30 04:17:21;;;;;;;1999.90;999.90;;;18.90;99.90;;;;;;5017009;28;20022;-75
2022/07/30 04:19:58;;;;;;;1999.90;999.90;;;18.90;99.90;;;;;;5016608;28;20033;-74
2022/07/30 04:22:30;;;;;;;1999.90;999.90;;;18.90;99.90;;;;;;5016930;28;20363;-74
2022/07/30 04:24:57;;;;;;;1999.90;999.90;;;18.80;99.90;;;;;;5016791;28;20026;-74
2022/07/30 04:27:24;;;;;;;1999.90;999.90;;;18.90;99.90;;;;;;5016422;28;20029;-74
2022/07/30 04:29:51;;;;;;;1999.90;999.90;;;18.90;99.90;;;;;;5016693;28;20037;-74
2022/07/30 04:32:18;;;;;;;1999.90;999.90;;;18.90;99.90;;;;;;5016237;28;20419;-74
2022/07/30 04:34:51;;;;;;;1999.90;999.90;;;18.80;99.90;;;;;;5016419;28;20036;-75
2022/07/30 04:37:19;;;;;;;1999.90;999.90;;;18.90;99.90;;;;;;5004237;28;20024;-76
2022/07/30 04:39:44;;;;;;;1999.90;999.90;;;18.80;99.90;;;;;;4997429;28;20038;-74
2022/07/30 04:42:10;;;;;;;1999.90;999.90;;;18.80;99.90;;;;;;4996808;28;20042;-74
2022/07/30 04:44:37;;;;;;;1999.90;999.90;;;18.80;99.90;;;;;;4997074;28;20031;-75
2022/07/30 04:47:03;;;;;;;1999.90;999.90;;;18.80;99.90;;;;;;4996800;28;20050;-74
2022/07/30 04:49:29;;;;;;;1999.90;999.90;;;18.80;99.90;;;;;;4996005;28;20030;-75
2022/07/30 04:51:55;;;;;;;1999.90;999.90;;;18.80;99.90;;;;;;4996654;28;20054;-74
2022/07/30 04:54:24;;;;;;;1999.90;999.90;;;18.80;99.90;;;;;;4996729;28;20042;-74
2022/07/30 04:56:51;;;;;;;1999.90;999.90;;;18.80;99.90;;;;;;4996410;28;20541;-74
2022/07/30 04:59:18;;;;;;;1999.90;999.90;;;18.80;99.90;;;;;;4996825;28;20031;-74
2022/07/30 05:01:51;;;;;;;1999.90;999.90;;;18.80;99.90;;;;;;4996560;28;20092;-76
2022/07/30 05:04:17;;;;;;;;;;;18.80;99.90;;;;;;5016670;28;20049;-76
2022/07/30 05:06:43;;;;;;;1999.90;999.90;;;18.90;99.90;;;;;;5016276;28;19905;-74
2022/07/30 05:09:10;;;;;;;1999.90;999.90;;;18.90;99.90;;;;;;5016067;28;20101;-75
2022/07/30 05:11:36;;;;;;;1999.90;999.90;;;18.90;99.90;;;;;;5015541;28;20032;-74
2022/07/30 05:14:02;;;;;;;1999.90;999.90;;;18.90;99.90;;;;;;5014569;28;20026;-74
2022/07/30 05:16:28;;;;;;;1999.90;999.90;;;18.90;99.90;;;;;;5015835;28;20029;-76
2022/07/30 05:18:54;;;;;;;1999.90;999.90;;;19.00;99.90;;;;;;5016002;28;20018;-75
2022/07/30 05:21:20;;;;;;;1999.90;999.90;;;19.00;99.90;;;;;;5014658;28;20037;-74
2022/07/30 05:23:45;;;;;;;1999.90;999.90;;;19.00;99.90;;;;;;5015506;28;20152;-75
2022/07/30 05:26:11;;;;;;;1999.90;999.90;;;19.10;99.90;;;;;;5015517;28;20034;-76
2022/07/30 05:28:37;;;;;;;1999.90;999.90;;;19.10;99.90;;;;;;5014313;28;20030;-74
2022/07/30 05:31:02;;;;;;;1999.90;999.90;;;19.10;99.90;;;;;;5015705;28;20080;-76
2022/07/30 05:33:28;;;;;;;1999.90;999.90;;;19.20;99.90;;;;;;5015593;28;20097;-74
2022/07/30 05:35:54;;;;;;;1999.90;999.90;;;19.20;99.90;;;;;;5014164;28;20029;-76
2022/07/30 05:38:19;;;;;;;1999.90;999.90;;;19.30;99.90;;;;;;5004043;28;20033;-76
2022/07/30 05:40:45;;;;;;;1999.90;999.90;;;19.30;99.90;;;;;;5015289;28;20029;-76
2022/07/30 05:43:11;;;;;;;1999.90;999.90;;;19.30;99.90;;;;;;5015476;28;20428;-74
2022/07/30 05:45:37;;;;;;;1999.90;999.90;;;19.40;99.90;;;;;;5015339;28;20029;-74
2022/07/30 05:48:03;;;;;;;1999.90;999.90;;;19.40;99.90;;;;;;5015129;28;20397;-74
2022/07/30 05:50:29;;;;;;;1999.90;999.90;;;19.50;99.90;;;;;;5014427;28;20049;-76
2022/07/30 05:52:56;;;;;;;1999.90;999.90;;;19.50;99.90;;;;;;5015155;28;20452;-76
2022/07/30 05:55:22;;;;;;;1999.90;999.90;;;19.50;99.90;;;;;;5014746;28;20026;-74
2022/07/30 05:57:47;;;;;;;1999.90;999.90;;;19.60;99.90;;;;;;5015222;28;20022;-74
2022/07/30 06:00:13;;;;;;;1999.90;999.90;;;19.60;99.90;;;;;;5015148;28;20117;-74
2022/07/30 06:02:39;;;;;;;1999.90;999.90;;;19.70;99.90;;;;;;5014896;28;20100;-76
2022/07/30 06:05:05;;;;;;;1999.90;999.90;;;19.70;99.90;;;;;;5013642;28;20088;-74
2022/07/30 06:07:31;;;;;;;1999.90;999.90;;;19.80;99.90;;;;;;5015029;28;20076;-76
2022/07/30 06:09:59;;;;;;;1999.90;999.90;;;19.90;99.90;;;;;;5014931;28;20029;-74
2022/07/30 06:12:26;;;;;;;1999.90;999.90;;;19.90;99.90;;;;;;5013021;28;20493;-74
2022/07/30 06:14:52;;;;;;;1999.90;999.90;;;20.00;99.90;;;;;;5014544;28;20034;-76
2022/07/30 06:17:17;;;;;;;1999.90;999.90;;;20.00;99.90;;;;;;5014453;28;20029;-76
2022/07/30 06:19:43;;;;;;;1999.90;999.90;;;20.10;99.90;;;;;;5014783;28;20026;-77
2022/07/30 06:22:08;;;;;;;1999.90;999.90;;;20.10;99.90;;;;;;5014363;28;20101;-77
2022/07/30 06:24:34;;;;;;;1999.90;999.90;;;20.10;99.90;;;;;;5014739;28;20030;-74
2022/07/30 06:27:00;;;;;;;1999.90;999.90;;;20.20;99.90;;;;;;5014384;28;20506;-74
2022/07/30 06:29:25;;;;;;;1999.90;999.90;;;20.30;99.90;;;;;;5014258;28;20600;-76
2022/07/30 06:31:51;;;;;;;1999.90;999.90;;;20.30;99.90;;;;;;5013075;28;20473;-76
2022/07/30 06:34:17;;;;;;;1999.90;999.90;;;20.40;99.90;;;;;;5012707;28;20029;-77
2022/07/30 06:36:44;;;;;;;1999.90;999.90;;;20.40;99.90;;;;;;5006300;28;20097;-74
2022/07/30 06:39:10;;;;;;;1999.90;999.90;;;20.40;99.90;;;;;;5009935;28;20026;-75
2022/07/30 06:41:36;;;;;;;1999.90;999.90;;;20.40;99.90;;;;;;5014283;28;20033;-75
2022/07/30 06:44:02;;;;;;;1999.90;999.90;;;20.50;99.90;;;;;;5014207;28;20101;-74
2022/07/30 06:46:27;;;;;;;1999.90;999.90;;;20.60;99.90;;;;;;5014395;28;20088;-76
2022/07/30 06:48:53;;;;;;;1999.90;999.90;;;20.60;99.90;;;;;;5013973;28;20097;-74
2022/07/30 06:51:19;;;;;;;1999.90;999.90;;;20.70;99.90;;;;;;5013345;28;20069;-77
2022/07/30 06:53:44;;;;;;;1999.90;999.90;;;20.80;99.90;;;;;;5014252;28;20413;-76
2022/07/30 06:56:11;;;;;;;1999.90;999.90;;;20.80;99.90;;;;;;5013897;28;20056;-76
2022/07/30 06:58:37;;;;;;;1999.90;999.90;;;20.90;99.90;;;;;;5014116;28;20049;-76
2022/07/30 07:01:03;;;;;;;1999.90;999.90;;;20.90;99.90;;;;;;5013899;28;20072;-74
2022/07/30 07:03:28;;;;;;;1999.90;999.90;;;21.00;99.90;;;;;;5013757;28;20501;-76
2022/07/30 07:05:54;;;;;;;1999.90;999.90;;;21.10;99.90;;;;;;5013907;28;20026;-74
2022/07/30 07:08:19;;;;;;;1999.90;999.90;;;21.10;99.90;;;;;;5012566;28;20420;-77
2022/07/30 07:10:45;;;;;;;1999.90;999.90;;;21.10;99.90;;;;;;5013668;28;20038;-75
2022/07/30 07:13:11;;;;;;;1999.90;999.90;;;21.00;99.90;;;;;;5013421;28;20041;-76
2022/07/30 07:15:36;;;;;;;1999.90;999.90;;;21.10;99.90;;;;;;5012646;28;20115;-74
2022/07/30 07:18:03;;;;;;;1999.90;999.90;;;21.20;99.90;;;;;;5013433;28;20104;-74
2022/07/30 07:20:28;;;;;;;1999.90;999.90;;;21.20;99.90;;;;;;5013534;28;20022;-74
2022/07/30 07:22:54;;;;;;;1999.90;999.90;;;21.20;99.90;;;;;;5013511;28;20503;-75
2022/07/30 07:25:19;;;;;;;1999.90;999.90;;;21.20;99.90;;;;;;5013582;28;20104;-74
2022/07/30 07:27:45;;;;;;;1999.90;999.90;;;21.40;99.90;;;;;;5012975;28;20029;-76
2022/07/30 07:30:11;;;;;;;1999.90;999.90;;;21.40;99.90;;;;;;5013727;28;20034;-75
2022/07/30 07:32:37;;;;;;;1999.90;999.90;;;21.40;99.90;;;;;;5013419;28;20029;-74
2022/07/30 07:35:04;;;;;;;1999.90;999.90;;;21.40;99.90;;;;;;5013158;28;20080;-77
2022/07/30 07:37:29;;;;;;;1999.90;999.90;;;21.50;99.90;;;;;;5000536;28;20018;-74
2022/07/30 07:39:55;;;;;;;1999.90;999.90;;;21.70;99.90;;;;;;5013329;28;20033;-77
2022/07/30 07:42:20;;;;;;;1999.90;999.90;;;21.70;99.90;;;;;;5013027;28;20026;-74
2022/07/30 07:44:46;;;;;;;1999.90;999.90;;;21.60;99.90;;;;;;5012689;28;20112;-74
2022/07/30 07:47:12;;;;;;;1999.90;999.90;;;21.80;99.90;;;;;;5013461;28;20112;-77
2022/07/30 07:49:38;;;;;;;1999.90;999.90;;;22.10;99.90;;;;;;5012797;28;20401;-77
2022/07/30 07:52:04;;;;;;;1999.90;999.90;;;23.20;99.90;;;;;;5012741;28;20049;-77
2022/07/30 07:54:29;;;;;;;1999.90;999.90;;;25.80;99.90;;;;;;5013230;28;20501;-75
2022/07/30 07:56:55;;;;;;;1999.90;999.90;;;26.40;99.90;;;;;;5013021;28;20022;-75
2022/07/30 07:59:21;;;;;;;1999.90;999.90;;;26.90;99.90;;;;;;5013153;28;20022;-74
2022/07/30 08:01:46;;;;;;;1999.90;999.90;;;27.10;99.90;;;;;;5012636;28;20477;-77
2022/07/30 08:04:12;;;;;;;1999.90;999.90;;;27.40;99.90;;;;;;5013049;28;20022;-78
2022/07/30 08:06:38;;;;;;;1999.90;999.90;;;27.60;99.90;;;;;;5012712;28;20436;-78
2022/07/30 08:09:03;;;;;;;1999.90;999.90;;;27.20;99.90;;;;;;5012807;28;20033;-75
2022/07/30 08:11:29;;;;;;;1999.90;999.90;;;27.90;99.90;;;;;;5012562;28;20034;-75
2022/07/30 08:13:54;;;;;;;1999.90;999.90;;;28.80;99.80;;;;;;5012969;28;20037;-78
2022/07/30 08:16:20;;;;;;;1999.90;999.90;;;28.90;99.20;;;;;;5012878;28;20026;-75
2022/07/30 08:18:46;;;;;;;1999.90;999.90;;;29.20;98.90;;;;;;5012899;28;20084;-73
2022/07/30 08:21:12;;;;;;;1999.90;999.90;;;29.60;98.30;;;;;;5011623;28;20030;-72
2022/07/30 08:23:37;;;;;;;1999.90;999.90;;;29.80;97.20;;;;;;5012807;28;20022;-72
2022/07/30 08:26:03;;;;;;;1999.90;999.90;;;29.40;97.30;;;;;;5012569;28;20053;-72
2022/07/30 08:28:29;;;;;;;1999.90;999.90;;;29.50;97.60;;;;;;5012916;28;20573;-75
2022/07/30 08:30:54;;;;;;;1999.90;999.90;;;29.70;97.20;;;;;;5012884;28;20030;-72
2022/07/30 08:33:20;;;;;;;1999.90;999.90;;;30.00;96.20;;;;;;5011541;28;20402;-72
2022/07/30 08:35:46;;;;;;;1999.90;999.90;;;31.10;95.70;;;;;;5012493;28;20030;-72
2022/07/30 08:38:12;;;;;;;1999.90;999.90;;;30.70;94.90;;;;;;5000181;28;20033;-73
2022/07/30 08:40:38;;;;;;;1999.90;999.90;;;30.20;96.00;;;;;;5012413;28;20030;-72
2022/07/30 08:43:06;;;;;;;1999.90;999.90;;;29.90;96.10;;;;;;5013125;28;20403;-73
2022/07/30 08:45:32;;;;;;;1999.90;999.90;;;30.60;95.70;;;;;;5012672;28;20076;-75
2022/07/30 08:48:06;;;;;;;1999.90;999.90;;;31.10;94.90;;;;;;5012553;28;20049;-73
2022/07/30 08:50:33;;;;;;;1999.90;999.90;;;31.10;93.40;;;;;;5010794;28;20053;-73
2022/07/30 08:53:00;;;;;;;1999.90;999.90;;;30.40;93.00;;;;;;5012345;28;20041;-73
2022/07/30 08:55:26;;;;;;;1999.90;999.90;;;30.60;91.30;;;;;;5012448;28;20041;-73
2022/07/30 08:57:52;;;;;;;1999.90;999.90;;;30.20;92.80;;;;;;5015047;28;20025;-75
2022/07/30 09:00:19;;;;;;;1999.90;999.90;;;30.90;90.20;;;;;;5016280;28;20029;-73
2022/07/30 09:02:44;;;;;;;1999.90;999.90;;;31.10;91.40;;;;;;5015991;28;20101;-73
2022/07/30 09:05:11;;;;;;;1999.90;999.90;;;31.20;92.30;;;;;;5016029;28;20168;-73
2022/07/30 09:07:37;;;;;;;1999.90;999.90;;;31.70;91.40;;;;;;5016048;28;20026;-76
2022/07/30 09:10:08;;;;;;;1999.90;999.90;;;30.90;92.30;;;;;;5016040;28;20044;-73
2022/07/30 09:12:39;;;;;;;1999.90;999.90;;;30.80;93.80;;;;;;5015444;28;20096;-76
2022/07/30 09:15:06;;;;;;;1999.90;999.90;;;30.20;92.90;;;;;;5015965;28;20029;-72
2022/07/30 09:17:45;;;;;;;1999.90;999.90;;;30.40;92.80;;;;;;5015662;28;20072;-76
2022/07/30 09:20:11;;;;;;;1999.90;999.90;;;30.70;93.50;;;;;;5015701;28;20032;-76
2022/07/30 09:22:42;;;;;;;1999.90;999.90;;;30.80;92.70;;;;;;5015726;28;20018;-76
2022/07/30 09:25:08;;;;;;;1999.90;999.90;;;30.40;93.60;;;;;;5015673;28;20034;-73
2022/07/30 09:27:48;;;;;;;1999.90;999.90;;;30.60;92.50;;;;;;5015376;28;20081;-73
2022/07/30 09:30:14;;;;;;;1999.90;999.90;;;31.00;93.00;;;;;;5015624;28;20028;-76
2022/07/30 09:32:55;;;;;;;1999.90;999.90;;;30.80;93.30;;;;;;5015605;28;20025;-76
2022/07/30 09:35:23;;;;;;;1999.90;999.90;;;31.20;93.00;;;;;;5015278;28;20058;-73
2022/07/30 09:37:58;;;;;;;1999.90;999.90;;;31.20;92.90;;;;;;4998649;28;20042;-76
2022/07/30 09:40:24;;;;;;;1999.90;999.90;;;31.90;92.20;;;;;;4995601;28;20045;-73
2022/07/30 09:43:02;;;;;;;1999.90;999.90;;;31.40;91.20;;;;;;4996067;28;20145;-75
2022/07/30 09:45:28;;;;;;;1999.90;999.90;;;30.10;93.00;;;;;;4995756;28;20023;-73
2022/07/30 09:47:54;;;;;;;1999.90;999.90;;;30.30;92.00;;;;;;4995797;28;20101;-73
2022/07/30 09:50:22;;;;;;;1999.90;999.90;;;30.70;91.80;;;;;;4995202;28;20510;-76
2022/07/30 09:52:49;;;;;;;1999.90;999.90;;;30.60;91.70;;;;;;4994871;28;20030;-73
2022/07/30 09:55:34;;;;;;;1999.90;999.90;;;31.40;89.80;;;;;;4995720;28;20030;-73
2022/07/30 09:58:02;;;;;;;1999.90;999.90;;;31.30;90.70;;;;;;4996058;28;20026;-73
2022/07/30 10:00:29;;;;;;;1999.90;999.90;;;31.70;86.70;;;;;;4995423;28;20058;-73
2022/07/30 10:02:55;;;;;;;1999.90;999.90;;;30.40;90.70;;;;;;5005069;28;20056;-76
2022/07/30 10:05:23;;;;;;;1999.90;999.90;;;30.60;91.30;;;;;;5014815;28;20112;-73
2022/07/30 10:07:49;;;;;;;1999.90;999.90;;;31.10;87.20;;;;;;5014287;28;20030;-73
2022/07/30 10:10:17;;;;;;;1999.90;999.90;;;30.70;88.30;;;;;;5015018;28;20049;-73
2022/07/30 10:12:45;;;;;;;1999.90;999.90;;;29.90;89.20;;;;;;5014364;28;20426;-76
2022/07/30 10:15:12;;;;;;;1999.90;999.90;;;29.90;90.30;;;;;;5014116;28;20033;-76
2022/07/30 10:17:38;;;;;;;1999.90;999.90;;;30.00;90.60;;;;;;5014577;28;20025;-75
2022/07/30 10:20:07;;;;;;;1999.90;999.90;;;30.50;89.60;;;;;;5014660;28;20028;-74
2022/07/30 10:22:34;;;;;;;1999.90;999.90;;;32.00;88.20;;;;;;5014447;28;20022;-73
2022/07/30 10:25:01;;;;;;;1999.90;999.90;;;31.50;88.40;;;;;;5014584;28;20022;-76
2022/07/30 10:27:27;;;;;;;1999.90;999.90;;;31.30;89.40;;;;;;5014187;28;20370;-75
2022/07/30 10:29:54;;;;;;;1999.90;999.90;;;31.20;89.00;;;;;;5014652;28;20117;-73
2022/07/30 10:32:19;;;;;;;1999.90;999.90;;;30.80;88.20;;;;;;5014431;28;20061;-75
2022/07/30 10:34:46;;;;;;;1999.90;999.90;;;30.50;88.60;;;;;;5014121;28;20060;-73
2022/07/30 10:37:15;;;;;;;1999.90;999.90;;;31.00;89.80;;;;;;5002878;28;20026;-76
2022/07/30 10:39:49;;;;;;;1999.90;999.90;;;31.10;90.00;;;;;;4995159;28;20022;-73
2022/07/30 10:42:30;;;;;;;1999.90;999.90;;;30.90;90.00;;;;;;4994533;28;20149;-76
2022/07/30 10:45:38;;;;;;;1999.90;999.90;;;30.10;90.30;;;;;;4993381;28;20125;-73
2022/07/30 10:48:05;;;;;;;1999.90;999.90;;;30.20;90.00;;;;;;4994660;28;20026;-73
2022/07/30 10:50:30;;;;;;;1999.90;999.90;;;31.50;87.80;;;;;;4994180;28;20050;-73
2022/07/30 10:53:02;;;;;;;1999.90;999.90;;;31.60;86.70;;;;;;4993886;28;20033;-76
2022/07/30 10:55:34;;;;;;;1999.90;999.90;;;31.60;85.80;;;;;;4994481;28;20477;-75
2022/07/30 10:58:04;;;;;;;1999.90;999.90;;;31.10;86.50;;;;;;4994612;28;20034;-75
2022/07/30 11:00:36;;;;;;;1999.90;999.90;;;31.10;86.60;;;;;;4994319;28;20022;-73
2022/07/30 11:03:11;;;;;;;1999.90;999.90;;;30.60;86.40;;;;;;5004681;28;20049;-76
2022/07/30 11:05:37;;;;;;;1999.90;999.90;;;31.00;83.60;;;;;;5013757;28;20477;-75
2022/07/30 11:08:27;;;;;;;1999.90;999.90;;;31.00;79.70;;;;;;5013720;28;20030;-73
2022/07/30 11:10:53;;;;;;;1999.90;999.90;;;31.00;82.90;;;;;;5013797;28;20032;-74
2022/07/30 11:13:52;;;;;;;1999.90;999.90;;;31.30;83.90;;;;;;5013548;28;20026;-76
2022/07/30 11:16:20;;;;;;;1999.90;999.90;;;31.90;82.30;;;;;;5013507;28;20041;-76
2022/07/30 11:19:05;;;;;;;1999.90;999.90;;;31.00;83.00;;;;;;5011256;28;20493;-76
2022/07/30 11:21:31;;;;;;;1999.90;999.90;;;31.20;82.60;;;;;;5013625;28;20037;-76
2022/07/30 11:23:58;;;;;;;1999.90;999.90;;;31.40;82.50;;;;;;5013588;28;20467;-73
2022/07/30 11:26:40;;;;;;;1999.90;999.90;;;31.40;82.60;;;;;;5013218;28;20042;-73
2022/07/30 11:29:06;;;;;;;;;;;30.70;84.30;;;;;;5013784;28;20416;-76
2022/07/30 11:31:35;;;;;;;1999.90;999.90;;;29.80;84.50;;;;;;5013208;28;19906;-76
2022/07/30 11:34:19;;;;;;;1999.90;999.90;;;30.90;83.30;;;;;;5013328;28;20087;-75
2022/07/30 11:37:12;;;;;;;1999.90;999.90;;;31.00;85.30;;;;;;5008627;28;20478;-72
2022/07/30 11:39:56;;;;;;;1999.90;999.90;;;30.10;85.00;;;;;;5012805;28;20030;-73
2022/07/30 11:42:37;;;;;;;1999.90;999.90;;;30.90;84.20;;;;;;5013180;28;20524;-76
2022/07/30 11:45:14;;;;;;;1999.90;999.90;;;31.20;83.50;;;;;;5013447;28;20025;-73
2022/07/30 11:47:52;;;;;;;1999.90;999.90;;;30.60;85.00;;;;;;5013341;28;20049;-76
2022/07/30 11:50:26;;;;;;;1999.90;999.90;;;30.20;85.70;;;;;;5012855;28;20041;-73
2022/07/30 11:52:55;;;;;;;1999.90;999.90;;;30.00;85.40;;;;;;5012679;28;20022;-74
2022/07/30 11:55:31;;;;;;;1999.90;999.90;;;29.40;87.00;;;;;;5013328;28;20029;-75
2022/07/30 11:57:58;;;;;;;1999.90;999.90;;;28.30;87.00;;;;;;5013343;28;20481;-75
2022/07/30 12:00:24;;;;;;;1999.90;999.90;;;28.20;86.30;;;;;;5011776;28;20029;-75
2022/07/30 12:02:50;;;;;;;1999.90;999.90;;;27.80;86.50;;;;;;5012921;28;20033;-73
2022/07/30 12:05:24;;;;;;;1999.90;999.90;;;27.50;88.80;;;;;;5013031;28;20033;-75
2022/07/30 12:07:49;;;;;;;1999.90;999.90;;;27.60;89.70;;;;;;5013133;28;20022;-75